Machagai, Argentina
Current Conditions -  °F | °C
As of 12:00 PM on Tuesday 21 Oct 2014 (Local Time) from SARE Reporting Station
Clear Clear  
Wind Chill: 86°   Ceiling: Unl
Heat Index: 86°   Visibility: 6mi
Dew Point: 48°   Wind: 8mph
Humidity: 27%   Direction: 90°E
Pressure: 30.09"   Gusts: NA
Location:  26.93°S, 60.05°W
Report Text: SARE 211500Z 09007KT CAVOK 30/09 Q1019
Loading
Personal Weather Stations






























Interactive Weather Map New forecast layout! Learn more

10-Day Weather Forecast

Advertisements
Track Severe Weather on mobile